createdAt,value
2023-03-24T00:02:07.079Z,12.30
2023-03-24T00:04:35.402Z,12.30
2023-03-24T00:07:03.354Z,12.30
2023-03-24T00:09:30.942Z,12.30
2023-03-24T00:11:58.169Z,12.40
2023-03-24T00:14:26.019Z,12.40
2023-03-24T00:16:54.666Z,12.40
2023-03-24T00:19:23.021Z,12.40
2023-03-24T00:21:49.822Z,12.40
2023-03-24T00:24:16.691Z,12.30
2023-03-24T00:26:43.478Z,12.30
2023-03-24T00:29:11.826Z,12.30
2023-03-24T00:31:40.140Z,12.20
2023-03-24T00:34:09.701Z,12.20
2023-03-24T00:36:37.215Z,12.20
2023-03-24T00:39:06.560Z,12.30
2023-03-24T00:41:33.705Z,12.30
2023-03-24T00:44:03.736Z,12.40
2023-03-24T00:46:31.100Z,12.50
2023-03-24T00:49:03.898Z,12.60
2023-03-24T00:51:35.818Z,12.70
2023-03-24T00:54:03.435Z,12.70
2023-03-24T00:56:33.616Z,12.70
2023-03-24T00:59:02.312Z,12.80
2023-03-24T01:01:36.516Z,12.80
2023-03-24T01:04:06.758Z,12.70
2023-03-24T01:06:36.990Z,12.70
2023-03-24T01:09:05.840Z,12.70
2023-03-24T01:11:38.565Z,12.60
2023-03-24T01:14:06.377Z,12.60
2023-03-24T01:16:33.358Z,12.40
2023-03-24T01:19:00.843Z,12.50
2023-03-24T01:21:27.676Z,12.50
2023-03-24T01:23:55.911Z,12.50
2023-03-24T01:26:22.815Z,12.50
2023-03-24T01:28:49.989Z,12.40
2023-03-24T01:31:17.111Z,12.50
2023-03-24T01:33:44.115Z,12.40
2023-03-24T01:36:11.453Z,12.40
2023-03-24T01:38:38.900Z,12.40
2023-03-24T01:41:07.809Z,12.40
2023-03-24T01:43:36.263Z,12.50
2023-03-24T01:46:12.876Z,12.40
2023-03-24T01:48:44.193Z,12.40
2023-03-24T01:51:16.408Z,12.40
2023-03-24T01:53:48.563Z,12.40
2023-03-24T01:56:16.844Z,12.40
2023-03-24T01:58:49.056Z,12.40
2023-03-24T02:01:17.535Z,12.50
2023-03-24T02:03:46.497Z,12.60
2023-03-24T02:06:14.677Z,12.50
2023-03-24T02:08:46.709Z,12.50
2023-03-24T02:11:13.721Z,12.50
2023-03-24T02:13:42.137Z,12.60
2023-03-24T02:16:21.818Z,12.50
2023-03-24T02:18:58.353Z,12.60
2023-03-24T02:21:47.057Z,12.60
2023-03-24T02:24:45.631Z,12.60
2023-03-24T02:27:30.069Z,12.60
2023-03-24T02:30:25.487Z,12.60
2023-03-24T02:33:28.220Z,12.70
2023-03-24T02:36:33.121Z,12.70
2023-03-24T02:39:43.402Z,12.70
2023-03-24T02:42:21.259Z,12.70
2023-03-24T02:44:55.548Z,12.70
2023-03-24T02:47:29.227Z,12.70
2023-03-24T02:50:04.722Z,12.70
2023-03-24T02:52:39.231Z,12.60
2023-03-24T02:55:14.702Z,12.60
2023-03-24T02:57:44.849Z,12.70
2023-03-24T03:00:20.149Z,12.70
2023-03-24T03:02:53.988Z,12.70
2023-03-24T03:05:25.492Z,12.60
2023-03-24T03:07:56.873Z,12.60
2023-03-24T03:10:30.739Z,12.50
2023-03-24T03:13:01.481Z,12.50
2023-03-24T03:15:32.849Z,12.60
2023-03-24T03:18:11.394Z,12.50
2023-03-24T03:20:43.070Z,12.60
2023-03-24T03:23:14.535Z,12.60
2023-03-24T03:25:50.607Z,12.70
2023-03-24T03:28:21.888Z,12.70
2023-03-24T03:30:53.553Z,12.70
2023-03-24T03:33:27.661Z,12.70
2023-03-24T03:35:58.958Z,12.70
2023-03-24T03:38:31.365Z,12.70
2023-03-24T03:41:02.659Z,12.80
2023-03-24T03:43:31.364Z,12.80
2023-03-24T03:45:58.937Z,12.80
2023-03-24T03:48:26.648Z,12.90
2023-03-24T03:51:06.296Z,12.90
2023-03-24T03:53:45.409Z,12.90
2023-03-24T03:56:18.441Z,12.90
2023-03-24T03:58:47.193Z,13.00
2023-03-24T04:01:19.030Z,13.10
2023-03-24T04:04:02.439Z,13.00
2023-03-24T04:06:37.551Z,13.00
2023-03-24T04:09:16.519Z,12.90
2023-03-24T04:12:09.323Z,12.90
2023-03-24T04:15:01.920Z,12.80
2023-03-24T04:17:46.097Z,12.80
2023-03-24T04:20:17.614Z,12.80
2023-03-24T04:22:58.991Z,12.60
2023-03-24T04:25:35.085Z,12.50
2023-03-24T04:28:11.936Z,12.50
2023-03-24T04:30:43.284Z,12.50
2023-03-24T04:33:17.903Z,12.60
2023-03-24T04:35:49.690Z,12.60
2023-03-24T04:38:23.102Z,12.60
2023-03-24T04:40:55.841Z,12.70
2023-03-24T04:43:27.921Z,12.70
2023-03-24T04:45:57.885Z,12.70
2023-03-24T04:48:26.098Z,12.80
2023-03-24T04:50:56.157Z,12.80
2023-03-24T04:53:23.319Z,12.80
2023-03-24T04:56:00.546Z,12.90
2023-03-24T04:58:29.535Z,12.80
2023-03-24T05:00:56.785Z,12.90
2023-03-24T05:03:23.620Z,12.90
2023-03-24T05:05:51.141Z,12.90
2023-03-24T05:08:19.856Z,12.90
2023-03-24T05:10:46.709Z,12.90
2023-03-24T05:13:13.731Z,12.90
2023-03-24T05:15:42.917Z,12.90
2023-03-24T05:18:10.516Z,13.00
2023-03-24T05:20:37.468Z,12.90
2023-03-24T05:23:05.815Z,12.90
2023-03-24T05:25:32.909Z,13.00
2023-03-24T05:28:00.166Z,13.00
2023-03-24T05:30:27.080Z,13.00
2023-03-24T05:32:55.728Z,13.00
2023-03-24T05:35:23.017Z,13.00
2023-03-24T05:37:50.295Z,13.10
2023-03-24T05:40:17.305Z,13.10
2023-03-24T05:42:44.467Z,13.00
2023-03-24T05:45:11.870Z,13.10
2023-03-24T05:47:39.063Z,13.10
2023-03-24T05:50:08.150Z,13.10
2023-03-24T05:52:36.276Z,13.10
2023-03-24T05:55:03.308Z,13.20
2023-03-24T05:57:30.738Z,13.20
2023-03-24T05:59:57.607Z,13.30
2023-03-24T06:02:25.492Z,13.30
2023-03-24T06:04:52.973Z,13.30
2023-03-24T06:07:22.429Z,13.40
2023-03-24T06:09:50.744Z,13.40
2023-03-24T06:12:18.047Z,13.40
2023-03-24T06:14:45.509Z,13.40
2023-03-24T06:17:15.503Z,13.40
2023-03-24T06:19:49.777Z,13.40
2023-03-24T06:22:18.111Z,13.50
2023-03-24T06:24:47.075Z,13.50
2023-03-24T06:27:14.620Z,13.50
2023-03-24T06:29:44.750Z,13.50
2023-03-24T06:32:11.923Z,13.50
2023-03-24T06:34:40.398Z,13.50
2023-03-24T06:37:07.541Z,13.50
2023-03-24T06:39:34.392Z,13.60
2023-03-24T06:42:02.804Z,13.50
2023-03-24T06:44:29.659Z,13.60
2023-03-24T06:46:56.838Z,13.60
2023-03-24T06:49:23.828Z,13.60
2023-03-24T06:51:51.114Z,13.60
2023-03-24T06:54:18.126Z,13.60
2023-03-24T06:56:45.036Z,13.60
2023-03-24T06:59:13.272Z,13.60
2023-03-24T07:01:40.465Z,13.60
2023-03-24T07:04:07.687Z,13.60
2023-03-24T07:06:43.171Z,13.60
2023-03-24T07:09:14.136Z,13.60
2023-03-24T07:11:41.693Z,13.60
2023-03-24T07:14:08.516Z,13.50
2023-03-24T07:16:36.945Z,13.40
2023-03-24T07:19:04.123Z,13.30
2023-03-24T07:21:31.096Z,13.10
2023-03-24T07:23:57.958Z,13.00
2023-03-24T07:26:24.801Z,13.10
2023-03-24T07:28:52.024Z,13.10
2023-03-24T07:31:19.151Z,13.20
2023-03-24T07:33:47.739Z,13.30
2023-03-24T07:36:14.908Z,13.50
2023-03-24T07:38:41.696Z,13.70
2023-03-24T07:41:08.803Z,13.70
2023-03-24T07:43:35.654Z,13.70
2023-03-24T07:46:02.908Z,13.70
2023-03-24T07:48:29.959Z,13.80
2023-03-24T07:50:58.511Z,13.90
2023-03-24T07:53:25.412Z,13.90
2023-03-24T07:55:52.430Z,13.80
2023-03-24T07:58:19.880Z,13.70
2023-03-24T08:00:47.439Z,13.60
2023-03-24T08:03:15.608Z,13.60
2023-03-24T08:05:44.174Z,13.70
2023-03-24T08:08:12.724Z,13.70
2023-03-24T08:10:39.827Z,13.70
2023-03-24T08:13:06.674Z,13.70
2023-03-24T08:15:33.887Z,13.70
2023-03-24T08:18:00.861Z,13.70
2023-03-24T08:20:29.862Z,13.80
2023-03-24T08:22:56.837Z,13.80
2023-03-24T08:25:26.780Z,13.80
2023-03-24T08:27:54.701Z,13.70
2023-03-24T08:30:23.523Z,13.70
2023-03-24T08:32:52.685Z,13.70
2023-03-24T08:35:23.113Z,13.80
2023-03-24T08:37:50.414Z,13.80
2023-03-24T08:40:23.578Z,13.70
2023-03-24T08:42:54.176Z,13.70
2023-03-24T08:45:23.711Z,13.50
2023-03-24T08:47:52.124Z,13.40
2023-03-24T08:50:21.087Z,13.40
2023-03-24T08:52:48.164Z,13.30
2023-03-24T08:55:15.533Z,13.30
2023-03-24T08:57:42.404Z,13.20
2023-03-24T09:00:15.440Z,13.10
2023-03-24T09:02:43.144Z,13.10
2023-03-24T09:05:10.159Z,13.10
2023-03-24T09:07:37.073Z,13.20
2023-03-24T09:10:04.930Z,13.40
2023-03-24T09:12:31.916Z,13.70
2023-03-24T09:14:58.718Z,13.80
2023-03-24T09:17:27.082Z,14.10
2023-03-24T09:19:54.153Z,14.30
2023-03-24T09:22:21.316Z,14.20
2023-03-24T09:24:49.167Z,14.30
2023-03-24T09:27:16.465Z,14.40
2023-03-24T09:29:43.583Z,14.50
2023-03-24T09:32:10.769Z,14.40
2023-03-24T09:34:38.836Z,14.50
2023-03-24T09:37:05.897Z,14.50
2023-03-24T09:39:35.621Z,14.50
2023-03-24T09:42:04.169Z,14.90
2023-03-24T09:44:36.807Z,14.90
2023-03-24T09:47:11.563Z,14.90
2023-03-24T09:49:42.061Z,15.10
2023-03-24T09:52:12.614Z,15.10
2023-03-24T09:54:47.800Z,14.80
2023-03-24T09:57:20.944Z,14.80
2023-03-24T09:59:47.820Z,14.70
2023-03-24T10:02:18.536Z,14.50
2023-03-24T10:04:47.299Z,14.20
2023-03-24T10:07:22.568Z,14.10
2023-03-24T10:09:56.497Z,14.20
2023-03-24T10:12:34.899Z,14.30
2023-03-24T10:15:30.877Z,14.40
2023-03-24T10:18:16.831Z,14.50
2023-03-24T10:20:51.589Z,14.30
2023-03-24T10:23:27.346Z,14.10
2023-03-24T10:26:00.487Z,14.00
2023-03-24T10:28:32.651Z,14.10
2023-03-24T10:31:05.108Z,14.00
2023-03-24T10:33:35.302Z,14.10
2023-03-24T10:36:08.286Z,14.10
2023-03-24T10:38:36.307Z,14.20
2023-03-24T10:41:04.182Z,14.30
2023-03-24T10:43:31.464Z,14.30
2023-03-24T10:45:59.927Z,14.30
2023-03-24T10:48:43.490Z,14.40
2023-03-24T10:51:16.551Z,14.80
2023-03-24T10:53:47.712Z,14.70
2023-03-24T10:56:17.434Z,14.80
2023-03-24T10:58:45.946Z,14.70
2023-03-24T11:01:27.422Z,14.70
2023-03-24T11:04:00.746Z,15.10
2023-03-24T11:06:29.248Z,14.90
2023-03-24T11:09:21.225Z,15.20
2023-03-24T11:11:50.731Z,15.10
2023-03-24T11:14:24.624Z,15.00
2023-03-24T11:16:52.520Z,14.80
2023-03-24T11:19:22.464Z,14.90
2023-03-24T11:21:57.736Z,15.00
2023-03-24T11:24:25.716Z,15.00
2023-03-24T11:27:00.120Z,15.20
2023-03-24T11:29:30.714Z,15.30
2023-03-24T11:31:59.744Z,15.40
2023-03-24T11:34:34.124Z,15.30
2023-03-24T11:37:04.924Z,15.90
2023-03-24T11:39:34.507Z,16.00
2023-03-24T11:42:14.412Z,16.70
2023-03-24T11:44:48.822Z,17.00
2023-03-24T11:47:21.959Z,17.50
2023-03-24T11:49:52.514Z,18.30
2023-03-24T11:52:27.074Z,18.40
2023-03-24T11:54:54.604Z,18.50
2023-03-24T11:57:36.009Z,18.40
2023-03-24T12:00:10.074Z,18.40
2023-03-24T12:02:49.940Z,17.20
2023-03-24T12:05:31.119Z,16.60
2023-03-24T12:08:27.121Z,17.70
2023-03-24T12:11:06.890Z,17.30
2023-03-24T12:13:36.460Z,16.70
2023-03-24T12:16:26.514Z,16.80
2023-03-24T12:19:24.469Z,17.80
2023-03-24T12:22:04.231Z,18.60
2023-03-24T12:24:47.212Z,18.80
2023-03-24T12:27:25.577Z,19.00
2023-03-24T12:30:00.904Z,20.20
2023-03-24T12:32:45.856Z,20.20
2023-03-24T12:35:41.511Z,19.90
2023-03-24T12:38:24.913Z,20.90
2023-03-24T12:41:19.803Z,19.70
2023-03-24T12:43:56.055Z,19.50
2023-03-24T12:46:46.726Z,18.40
2023-03-24T12:49:51.269Z,19.00
2023-03-24T12:52:42.111Z,17.90
2023-03-24T12:55:14.524Z,16.60
2023-03-24T12:57:48.295Z,16.00
2023-03-24T13:00:22.137Z,15.70
2023-03-24T13:02:53.690Z,15.70
2023-03-24T13:05:27.407Z,15.70
2023-03-24T13:07:59.167Z,15.60
2023-03-24T13:10:27.927Z,16.30
2023-03-24T13:13:01.813Z,16.40
2023-03-24T13:15:33.446Z,16.00
2023-03-24T13:18:10.725Z,15.60
2023-03-24T13:20:42.533Z,17.00
2023-03-24T13:23:27.633Z,17.70
2023-03-24T13:26:02.859Z,17.10
2023-03-24T13:28:38.705Z,16.10
2023-03-24T13:31:09.387Z,15.70
2023-03-24T13:33:39.030Z,16.10
2023-03-24T13:36:22.447Z,16.50
2023-03-24T13:38:52.262Z,16.70
2023-03-24T13:41:20.979Z,16.60
2023-03-24T13:43:51.890Z,16.20
2023-03-24T13:46:19.879Z,16.20
2023-03-24T13:48:51.949Z,17.10
2023-03-24T13:51:24.547Z,18.80
2023-03-24T13:53:54.485Z,18.70
2023-03-24T13:56:26.160Z,19.40
2023-03-24T13:59:11.332Z,18.30
2023-03-24T14:01:39.653Z,17.00
2023-03-24T14:04:27.805Z,16.30
2023-03-24T14:06:55.927Z,15.90
2023-03-24T14:09:24.740Z,15.50
2023-03-24T14:12:19.359Z,15.30
2023-03-24T14:15:19.730Z,15.20
2023-03-24T14:17:49.070Z,15.30
2023-03-24T14:20:29.063Z,15.40
2023-03-24T14:22:56.842Z,15.20
2023-03-24T14:25:27.147Z,15.20
2023-03-24T14:28:06.607Z,15.00
2023-03-24T14:30:38.059Z,14.80
2023-03-24T14:33:05.598Z,14.80
2023-03-24T14:35:35.870Z,14.80
2023-03-24T14:38:05.980Z,15.00
2023-03-24T14:40:38.734Z,15.30
2023-03-24T14:43:17.727Z,15.50
2023-03-24T14:46:06.362Z,15.30
2023-03-24T14:48:38.157Z,15.20
2023-03-24T14:51:36.621Z,15.20
2023-03-24T14:54:07.249Z,15.20
2023-03-24T14:56:39.956Z,15.20
2023-03-24T14:59:16.860Z,15.10
2023-03-24T15:01:48.976Z,15.00
2023-03-24T15:04:16.183Z,14.80
2023-03-24T15:06:44.917Z,14.60
2023-03-24T15:09:11.806Z,14.70
2023-03-24T15:11:40.817Z,15.60
2023-03-24T15:14:19.252Z,15.80
2023-03-24T15:16:54.626Z,15.80
2023-03-24T15:19:22.948Z,15.50
2023-03-24T15:21:51.991Z,15.50
2023-03-24T15:24:27.823Z,15.90
2023-03-24T15:27:10.747Z,16.50
2023-03-24T15:29:39.522Z,16.30
2023-03-24T15:32:15.678Z,16.00
2023-03-24T15:34:47.211Z,15.60
2023-03-24T15:37:21.835Z,15.40
2023-03-24T15:39:51.215Z,15.20
2023-03-24T15:42:22.704Z,15.50
2023-03-24T15:44:51.140Z,15.90
2023-03-24T15:47:23.263Z,16.20
2023-03-24T15:49:52.678Z,16.00
2023-03-24T15:52:31.301Z,15.90
2023-03-24T15:55:01.436Z,15.90
2023-03-24T15:57:29.377Z,16.00
2023-03-24T16:00:11.981Z,16.00
2023-03-24T16:02:43.843Z,15.80
2023-03-24T16:05:17.540Z,15.50
2023-03-24T16:07:44.635Z,15.30
2023-03-24T16:10:28.998Z,15.30
2023-03-24T16:12:56.407Z,15.30
2023-03-24T16:15:23.371Z,15.20
2023-03-24T16:17:53.328Z,15.20
2023-03-24T16:20:21.771Z,15.10
2023-03-24T16:22:48.766Z,14.80
2023-03-24T16:25:16.272Z,14.60
2023-03-24T16:27:43.487Z,14.40
2023-03-24T16:30:19.346Z,14.20
2023-03-24T16:32:46.364Z,14.10
2023-03-24T16:35:14.701Z,14.00
2023-03-24T16:37:42.781Z,14.00
2023-03-24T16:40:21.255Z,14.00
2023-03-24T16:42:48.683Z,13.90
2023-03-24T16:45:16.557Z,14.00
2023-03-24T16:47:43.804Z,14.00
2023-03-24T16:50:37.070Z,13.90
2023-03-24T16:53:05.776Z,13.80
2023-03-24T16:55:33.099Z,13.60
2023-03-24T16:58:01.396Z,13.60
2023-03-24T17:00:29.861Z,13.60
2023-03-24T17:02:59.895Z,13.50
2023-03-24T17:05:29.937Z,13.50
2023-03-24T17:07:58.540Z,13.40
2023-03-24T17:10:27.328Z,13.40
2023-03-24T17:12:55.867Z,13.30
2023-03-24T17:15:25.852Z,13.10
2023-03-24T17:17:53.321Z,12.90
2023-03-24T17:20:24.590Z,12.90
2023-03-24T17:22:54.264Z,12.70
2023-03-24T17:25:24.383Z,11.80
2023-03-24T17:27:53.536Z,10.80
2023-03-24T17:30:22.103Z,10.20
2023-03-24T17:32:49.274Z,9.70
2023-03-24T17:35:18.436Z,9.50
2023-03-24T17:37:47.898Z,9.40
2023-03-24T17:40:27.714Z,9.30
2023-03-24T17:42:54.855Z,9.30
2023-03-24T17:45:21.949Z,9.30
2023-03-24T17:47:49.159Z,9.40
2023-03-24T17:50:16.364Z,9.40
2023-03-24T17:52:51.610Z,9.50
2023-03-24T17:55:19.886Z,9.50
2023-03-24T17:57:48.222Z,9.50
2023-03-24T18:00:20.495Z,9.60
2023-03-24T18:02:47.398Z,9.60
2023-03-24T18:05:15.776Z,9.70
2023-03-24T18:07:42.654Z,9.70
2023-03-24T18:10:10.409Z,9.70
2023-03-24T18:12:37.377Z,9.70
2023-03-24T18:15:07.593Z,9.70
2023-03-24T18:17:34.580Z,9.60
2023-03-24T18:20:10.336Z,9.50
2023-03-24T18:22:37.888Z,9.50
2023-03-24T18:25:05.232Z,9.50
2023-03-24T18:27:32.775Z,9.40
2023-03-24T18:29:59.851Z,9.40
2023-03-24T18:32:28.298Z,9.40
2023-03-24T18:35:00.716Z,9.40
2023-03-24T18:37:27.967Z,9.40
2023-03-24T18:39:56.373Z,9.40
2023-03-24T18:42:23.177Z,9.40
2023-03-24T18:44:50.564Z,9.40
2023-03-24T18:47:17.697Z,9.40
2023-03-24T18:49:45.965Z,9.40
2023-03-24T18:52:14.811Z,9.40
2023-03-24T18:54:41.637Z,9.40
2023-03-24T18:57:08.949Z,9.40
2023-03-24T18:59:36.462Z,9.50
2023-03-24T19:02:03.323Z,9.50
2023-03-24T19:04:31.188Z,9.50
2023-03-24T19:07:00.550Z,9.50
2023-03-24T19:09:29.177Z,9.50
2023-03-24T19:11:56.121Z,9.60
2023-03-24T19:14:28.867Z,9.60
2023-03-24T19:16:57.369Z,9.70
2023-03-24T19:19:24.880Z,9.70
2023-03-24T19:21:53.154Z,9.70
2023-03-24T19:24:21.397Z,9.80
2023-03-24T19:26:48.189Z,9.70
2023-03-24T19:29:16.485Z,9.80
2023-03-24T19:31:43.285Z,9.80
2023-03-24T19:34:10.444Z,9.80
2023-03-24T19:36:41.561Z,9.80
2023-03-24T19:39:09.260Z,9.90
2023-03-24T19:41:37.447Z,9.90
2023-03-24T19:44:04.874Z,10.00
2023-03-24T19:46:31.681Z,10.00
2023-03-24T19:48:59.164Z,10.00
2023-03-24T19:51:28.801Z,10.10
2023-03-24T19:53:59.378Z,10.10
2023-03-24T19:56:26.389Z,10.10
2023-03-24T19:58:54.952Z,10.10
2023-03-24T20:01:23.710Z,10.10
2023-03-24T20:03:51.888Z,10.10
2023-03-24T20:06:19.913Z,10.10
2023-03-24T20:08:49.790Z,10.10
2023-03-24T20:11:16.522Z,10.10
2023-03-24T20:13:43.733Z,10.10
2023-03-24T20:16:12.883Z,10.10
2023-03-24T20:18:40.720Z,10.10
2023-03-24T20:21:09.297Z,10.10
2023-03-24T20:23:36.468Z,10.20
2023-03-24T20:26:03.581Z,10.20
2023-03-24T20:28:30.836Z,10.10
2023-03-24T20:31:01.763Z,10.10
2023-03-24T20:33:30.721Z,10.10
2023-03-24T20:35:58.347Z,10.00
2023-03-24T20:38:26.232Z,10.00
2023-03-24T20:41:00.596Z,9.90
2023-03-24T20:43:27.944Z,9.90
2023-03-24T20:45:56.454Z,9.80
2023-03-24T20:48:27.029Z,9.80
2023-03-24T20:50:55.562Z,9.80
2023-03-24T20:53:22.769Z,9.80
2023-03-24T20:55:57.948Z,9.80
2023-03-24T20:58:24.884Z,9.90
2023-03-24T21:00:52.156Z,9.90
2023-03-24T21:03:19.515Z,9.90
2023-03-24T21:05:46.806Z,9.90
2023-03-24T21:08:15.610Z,9.90
2023-03-24T21:10:42.930Z,9.90
2023-03-24T21:13:09.788Z,9.80
2023-03-24T21:15:45.350Z,9.80
2023-03-24T21:18:12.147Z,9.80
2023-03-24T21:20:40.358Z,9.70
2023-03-24T21:23:09.645Z,9.80
2023-03-24T21:25:38.362Z,9.80
2023-03-24T21:28:05.211Z,9.70
2023-03-24T21:30:32.424Z,9.70
2023-03-24T21:33:00.525Z,9.70
2023-03-24T21:35:28.014Z,9.70
2023-03-24T21:37:54.929Z,9.60
2023-03-24T21:40:25.180Z,9.60
2023-03-24T21:42:53.950Z,9.60
2023-03-24T21:45:23.151Z,9.60
2023-03-24T21:47:50.274Z,9.50
2023-03-24T21:50:22.865Z,9.50
2023-03-24T21:52:50.692Z,9.50
2023-03-24T21:55:18.096Z,9.50
2023-03-24T21:57:46.227Z,9.60
2023-03-24T22:00:17.878Z,9.60
2023-03-24T22:02:47.335Z,9.60
2023-03-24T22:05:15.679Z,9.50
2023-03-24T22:07:43.161Z,9.60
2023-03-24T22:10:13.732Z,9.50
2023-03-24T22:12:41.509Z,9.50
2023-03-24T22:15:12.114Z,9.50
2023-03-24T22:17:40.866Z,9.50
2023-03-24T22:20:09.501Z,9.50
2023-03-24T22:22:37.320Z,9.40
2023-03-24T22:25:06.978Z,9.50
2023-03-24T22:27:33.940Z,9.50
2023-03-24T22:30:01.055Z,9.40
2023-03-24T22:32:28.176Z,9.40
2023-03-24T22:34:56.911Z,9.40
2023-03-24T22:37:23.689Z,9.40
2023-03-24T22:39:50.533Z,9.40
2023-03-24T22:42:17.301Z,9.40
2023-03-24T22:44:44.160Z,9.40
2023-03-24T22:47:10.936Z,9.50
2023-03-24T22:49:38.248Z,9.40
2023-03-24T22:52:06.878Z,9.50
2023-03-24T22:54:34.078Z,9.50
2023-03-24T22:57:00.963Z,9.50
2023-03-24T22:59:31.234Z,9.50
2023-03-24T23:02:08.707Z,9.50
2023-03-24T23:04:37.341Z,9.50
2023-03-24T23:07:06.158Z,9.50
2023-03-24T23:09:35.049Z,9.60
2023-03-24T23:12:02.454Z,9.60
2023-03-24T23:14:30.232Z,9.70
2023-03-24T23:16:57.216Z,9.70
2023-03-24T23:19:24.325Z,9.60
2023-03-24T23:21:51.302Z,9.60
2023-03-24T23:24:18.361Z,9.60
2023-03-24T23:26:47.238Z,9.60
2023-03-24T23:29:14.123Z,9.70
2023-03-24T23:31:41.259Z,9.70
2023-03-24T23:34:11.069Z,9.70
2023-03-24T23:36:39.772Z,9.80
2023-03-24T23:39:07.003Z,9.90
2023-03-24T23:41:34.080Z,9.90
2023-03-24T23:44:02.551Z,9.90
2023-03-24T23:46:29.385Z,10.00
2023-03-24T23:48:56.283Z,10.00
2023-03-24T23:51:23.108Z,10.10
2023-03-24T23:53:50.503Z,10.10
2023-03-24T23:56:21.396Z,10.10
2023-03-24T23:58:48.417Z,10.20
